Time;durP1;ratioP1;P1;durP2;ratioP2;P2;SDS_P1;SDS_P2;PMS_P1;PMS_P2;Temp;Humidity;BMP_temperature;BMP_pressure;BME280_temperature;BME280_humidity;BME280_pressure;Samples;Min_cycle;Max_cycle;Signal;HPM_P1;HPM_P2
2023/04/13 00:00:43;;;;;;;5.50;0.70;;;7.90;71.20;;;;;;5055619;28;48066;-66
2023/04/13 00:03:11;;;;;;;2.03;0.70;;;8.00;70.60;;;;;;5055268;28;46366;-66
2023/04/13 00:05:38;;;;;;;1.17;0.63;;;8.00;70.30;;;;;;5052118;28;46433;-66
2023/04/13 00:08:04;;;;;;;1.43;0.60;;;8.00;69.90;;;;;;5055232;28;45911;-66
2023/04/13 00:10:34;;;;;;;1.93;0.70;;;8.10;69.20;;;;;;5055815;28;46449;-66
2023/04/13 00:13:01;;;;;;;2.73;0.80;;;8.20;68.80;;;;;;5056511;28;46237;-65
2023/04/13 00:15:26;;;;;;;1.20;0.60;;;8.20;68.60;;;;;;5049964;28;46406;-66
2023/04/13 00:17:52;;;;;;;1.20;0.60;;;8.20;68.30;;;;;;5047780;28;46441;-67
2023/04/13 00:20:18;;;;;;;2.90;0.70;;;8.30;67.90;;;;;;5047411;28;46468;-66
2023/04/13 00:22:45;;;;;;;1.30;0.70;;;8.30;67.60;;;;;;5046351;28;46418;-67
2023/04/13 00:25:13;;;;;;;1.30;0.70;;;8.30;67.20;;;;;;5049895;28;46434;-66
2023/04/13 00:27:39;;;;;;;3.83;1.00;;;8.30;67.20;;;;;;5048198;28;46741;-66
2023/04/13 00:30:11;;;;;;;1.40;0.70;;;8.30;66.90;;;;;;5050270;28;47228;-66
2023/04/13 00:32:41;;;;;;;2.37;0.80;;;8.30;66.80;;;;;;5052124;28;46354;-66
2023/04/13 00:35:07;;;;;;;1.10;0.60;;;8.30;66.60;;;;;;5050449;28;46517;-66
2023/04/13 00:37:33;;;;;;;1.17;0.57;;;8.20;66.50;;;;;;5052214;28;46562;-66
2023/04/13 00:39:59;;;;;;;1.13;0.60;;;8.20;66.40;;;;;;5050231;28;46995;-66
2023/04/13 00:42:25;;;;;;;1.10;0.60;;;8.20;66.30;;;;;;5047632;28;46586;-66
2023/04/13 00:44:52;;;;;;;1.00;0.60;;;8.10;66.40;;;;;;5052323;28;46480;-66
2023/04/13 00:47:29;;;;;;;1.10;0.60;;;8.10;66.20;;;;;;5045653;28;46450;-66
2023/04/13 00:49:55;;;;;;;1.17;0.60;;;8.00;66.30;;;;;;5050723;28;46566;-66
2023/04/13 00:52:21;;;;;;;2.17;0.60;;;7.90;66.40;;;;;;5049985;28;46401;-66
2023/04/13 00:54:51;;;;;;;1.20;0.60;;;7.90;66.40;;;;;;5047806;28;46469;-66
2023/04/13 00:57:18;;;;;;;1.20;0.60;;;7.80;66.40;;;;;;5047514;28;46598;-66
2023/04/13 00:59:46;;;;;;;1.10;0.60;;;7.80;66.50;;;;;;5050713;28;46955;-66
2023/04/13 01:02:12;;;;;;;1.60;0.60;;;7.80;66.40;;;;;;5050194;28;46464;-66
2023/04/13 01:04:38;;;;;;;1.37;0.60;;;7.70;66.50;;;;;;5048989;28;46419;-66
2023/04/13 01:07:15;;;;;;;1.30;0.70;;;7.70;66.50;;;;;;5053516;28;46359;-66
2023/04/13 01:09:48;;;;;;;1.57;0.70;;;7.70;66.40;;;;;;5048078;28;46513;-65
2023/04/13 01:12:39;;;;;;;1.30;0.60;;;7.60;66.30;;;;;;5049462;28;46348;-65
2023/04/13 01:15:10;;;;;;;1.20;0.60;;;7.70;66.10;;;;;;5048873;28;46425;-66
2023/04/13 01:17:37;;;;;;;1.10;0.70;;;7.70;66.00;;;;;;5049567;28;46435;-66
2023/04/13 01:20:15;;;;;;;1.97;0.70;;;7.70;65.90;;;;;;5046047;28;46275;-65
2023/04/13 01:23:08;;;;;;;2.73;0.80;;;7.60;65.80;;;;;;5049023;28;46381;-65
2023/04/13 01:25:46;;;;;;;1.40;0.73;;;7.60;65.80;;;;;;5047037;28;45799;-66
2023/04/13 01:28:14;;;;;;;1.10;0.60;;;7.50;65.70;;;;;;5052482;28;46277;-65
2023/04/13 01:30:41;;;;;;;2.40;0.90;;;7.50;65.90;;;;;;5046044;28;46520;-66
2023/04/13 01:33:08;;;;;;;2.30;0.80;;;7.40;66.10;;;;;;5049725;28;46441;-65
2023/04/13 01:35:35;;;;;;;1.10;0.60;;;7.30;66.10;;;;;;5050742;28;46433;-66
2023/04/13 01:38:01;;;;;;;1.80;0.70;;;7.30;66.10;;;;;;5047097;28;46389;-66
2023/04/13 01:40:29;;;;;;;1.37;0.80;;;7.20;66.00;;;;;;5049127;28;46583;-66
2023/04/13 01:42:56;;;;;;;1.90;0.87;;;7.20;66.00;;;;;;5048572;28;46333;-66
2023/04/13 01:45:28;;;;;;;1.10;0.70;;;7.20;65.90;;;;;;5048994;28;46498;-65
2023/04/13 01:48:11;;;;;;;1.17;0.70;;;7.20;65.90;;;;;;5051745;28;46504;-65
2023/04/13 01:50:39;;;;;;;1.30;0.70;;;7.10;65.80;;;;;;5049243;28;47379;-65
2023/04/13 01:53:10;;;;;;;2.07;0.70;;;7.10;65.80;;;;;;5048748;28;45792;-67
2023/04/13 01:55:38;;;;;;;1.10;0.60;;;7.10;65.80;;;;;;5049476;28;46493;-66
2023/04/13 01:58:05;;;;;;;1.57;0.80;;;7.10;65.70;;;;;;5050002;28;46405;-65
2023/04/13 02:00:35;;;;;;;2.23;0.90;;;7.10;65.60;;;;;;5047667;28;46439;-66
2023/04/13 02:03:03;;;;;;;1.63;0.60;;;7.10;65.60;;;;;;5050112;28;46427;-66
2023/04/13 02:05:30;;;;;;;1.60;0.70;;;7.10;65.60;;;;;;5052116;28;45836;-66
2023/04/13 02:07:56;;;;;;;1.27;0.67;;;7.10;65.50;;;;;;5052379;28;46429;-66
2023/04/13 02:10:21;;;;;;;1.20;0.60;;;7.00;65.40;;;;;;5049307;28;47321;-65
2023/04/13 02:12:47;;;;;;;1.30;0.80;;;7.00;65.40;;;;;;5047643;28;46455;-65
2023/04/13 02:15:13;;;;;;;1.87;0.70;;;7.00;65.50;;;;;;5048833;28;46442;-65
2023/04/13 02:17:39;;;;;;;1.30;0.60;;;7.00;65.60;;;;;;5047988;28;46804;-65
2023/04/13 02:20:11;;;;;;;1.77;0.63;;;6.90;65.40;;;;;;5047601;28;46429;-65
2023/04/13 02:22:38;;;;;;;3.10;1.10;;;6.90;65.30;;;;;;5049493;28;46432;-66
2023/04/13 02:25:05;;;;;;;1.90;0.80;;;6.90;65.40;;;;;;5046943;28;46424;-65
2023/04/13 02:27:33;;;;;;;2.33;0.80;;;6.90;66.60;;;;;;5047428;28;46377;-66
2023/04/13 02:29:59;;;;;;;3.43;0.80;;;6.90;65.40;;;;;;5050879;28;46492;-66
2023/04/13 02:32:24;;;;;;;2.47;0.80;;;6.80;65.30;;;;;;5047208;28;46485;-65
2023/04/13 02:34:50;;;;;;;1.00;0.60;;;6.80;65.40;;;;;;5047092;28;46441;-65
2023/04/13 02:37:15;;;;;;;2.23;0.70;;;6.80;65.30;;;;;;5046949;28;46361;-65
2023/04/13 02:39:41;;;;;;;1.33;0.70;;;6.70;65.40;;;;;;5045190;28;47194;-66
2023/04/13 02:42:07;;;;;;;1.57;0.80;;;6.70;65.60;;;;;;5048070;28;46501;-66
2023/04/13 02:44:33;;;;;;;1.37;0.70;;;6.70;65.60;;;;;;5048028;28;46443;-65
2023/04/13 02:46:58;;;;;;;1.40;0.70;;;6.70;65.60;;;;;;5047365;28;46378;-66
2023/04/13 02:49:24;;;;;;;1.10;0.60;;;6.70;65.70;;;;;;5050056;28;47108;-66
2023/04/13 02:51:49;;;;;;;1.20;0.70;;;6.70;65.30;;;;;;5056073;28;46413;-66
2023/04/13 02:54:15;;;;;;;1.30;0.70;;;6.70;65.30;;;;;;5051835;28;46525;-65
2023/04/13 02:56:43;;;;;;;1.57;0.60;;;6.60;65.10;;;;;;5049281;28;46402;-65
2023/04/13 02:59:09;;;;;;;2.33;0.80;;;6.70;65.10;;;;;;5048174;28;46464;-65
2023/04/13 03:01:35;;;;;;;5.20;0.83;;;6.70;65.10;;;;;;5046261;28;46381;-66
2023/04/13 03:04:01;;;;;;;1.30;0.63;;;6.70;65.20;;;;;;5051142;28;46477;-65
2023/04/13 03:06:26;;;;;;;1.93;0.80;;;6.60;65.30;;;;;;5049903;28;46402;-65
2023/04/13 03:08:53;;;;;;;1.10;0.70;;;6.60;65.30;;;;;;5048616;28;46424;-66
2023/04/13 03:11:19;;;;;;;2.23;1.10;;;6.70;65.50;;;;;;5050972;28;46322;-65
2023/04/13 03:13:45;;;;;;;2.60;0.83;;;6.70;65.40;;;;;;5053610;28;46370;-65
2023/04/13 03:16:11;;;;;;;1.40;0.80;;;6.70;65.30;;;;;;5051796;28;46373;-66
2023/04/13 03:18:37;;;;;;;1.20;0.67;;;6.70;65.20;;;;;;5051527;28;46416;-66
2023/04/13 03:21:04;;;;;;;1.10;0.70;;;6.70;65.10;;;;;;5051209;28;46397;-65
2023/04/13 03:23:30;;;;;;;2.53;0.70;;;6.70;65.10;;;;;;5050352;28;46426;-65
2023/04/13 03:25:56;;;;;;;1.60;0.70;;;6.70;65.10;;;;;;5053378;28;46397;-66
2023/04/13 03:28:22;;;;;;;1.70;0.70;;;6.60;65.20;;;;;;5049151;28;47271;-65
2023/04/13 03:30:48;;;;;;;1.80;1.00;;;6.60;65.20;;;;;;5051713;28;46409;-66
2023/04/13 03:33:13;;;;;;;1.20;0.63;;;6.70;65.20;;;;;;5053198;28;45911;-65
2023/04/13 03:35:39;;;;;;;2.40;0.77;;;6.60;65.20;;;;;;5048777;28;46428;-66
2023/04/13 03:38:05;;;;;;;1.23;0.70;;;6.70;65.10;;;;;;5047173;28;46517;-66
2023/04/13 03:40:30;;;;;;;1.40;0.70;;;6.70;65.00;;;;;;5051051;28;46313;-66
2023/04/13 03:42:56;;;;;;;1.57;0.73;;;6.60;65.10;;;;;;5052191;28;46433;-66
2023/04/13 03:45:22;;;;;;;1.30;0.77;;;6.70;66.20;;;;;;5048601;28;46493;-66
2023/04/13 03:47:47;;;;;;;2.50;0.80;;;6.60;65.10;;;;;;5051471;28;46419;-65
2023/04/13 03:50:13;;;;;;;1.40;0.90;;;6.60;65.10;;;;;;5050684;28;46440;-66
2023/04/13 03:52:39;;;;;;;1.50;0.70;;;6.60;66.30;;;;;;5050319;28;45923;-65
2023/04/13 03:55:05;;;;;;;1.30;0.73;;;6.50;65.10;;;;;;5053997;28;46437;-65
2023/04/13 03:57:32;;;;;;;1.37;0.73;;;6.50;65.10;;;;;;5047595;28;46114;-66
2023/04/13 03:59:57;;;;;;;1.20;0.80;;;6.50;65.30;;;;;;5051199;28;46405;-65
2023/04/13 04:02:23;;;;;;;1.20;0.70;;;6.60;65.10;;;;;;5051172;28;46436;-66
2023/04/13 04:04:49;;;;;;;1.67;0.60;;;6.60;65.00;;;;;;5053174;28;46467;-66
2023/04/13 04:07:15;;;;;;;1.20;0.70;;;6.60;64.70;;;;;;5060031;28;46295;-65
2023/04/13 04:09:41;;;;;;;2.60;1.00;;;6.70;64.70;;;;;;5050203;28;46401;-65
2023/04/13 04:12:06;;;;;;;1.40;0.70;;;6.70;64.40;;;;;;5053669;28;46515;-66
2023/04/13 04:14:32;;;;;;;1.30;0.63;;;6.70;64.20;;;;;;5053168;28;46496;-66
2023/04/13 04:16:58;;;;;;;1.40;0.83;;;6.70;64.30;;;;;;5049783;28;47591;-65
2023/04/13 04:19:24;;;;;;;1.40;0.70;;;6.70;64.40;;;;;;5053312;28;46649;-65
2023/04/13 04:21:51;;;;;;;3.27;0.87;;;6.70;64.50;;;;;;5052288;28;46326;-65
2023/04/13 04:24:21;;;;;;;1.37;0.80;;;6.70;64.50;;;;;;5053062;28;46685;-65
2023/04/13 04:26:48;;;;;;;2.30;0.80;;;6.60;64.50;;;;;;5045900;28;46436;-65
2023/04/13 04:29:20;;;;;;;1.60;0.80;;;6.60;64.60;;;;;;5054126;28;46526;-65
2023/04/13 04:31:51;;;;;;;1.43;0.83;;;6.60;64.60;;;;;;5050481;28;46267;-65
2023/04/13 04:34:17;;;;;;;2.90;0.90;;;6.60;64.70;;;;;;5047287;28;46518;-66
2023/04/13 04:36:49;;;;;;;3.67;0.97;;;6.50;64.90;;;;;;5049270;28;46540;-64
2023/04/13 04:39:25;;;;;;;1.30;0.70;;;6.40;66.30;;;;;;5049738;28;46427;-65
2023/04/13 04:42:01;;;;;;;2.17;0.80;;;6.40;65.30;;;;;;5051916;28;46426;-65
2023/04/13 04:44:29;;;;;;;3.00;1.10;;;6.30;65.20;;;;;;5049665;28;46683;-66
2023/04/13 04:46:56;;;;;;;1.60;0.90;;;6.30;65.30;;;;;;5056086;28;46388;-65
2023/04/13 04:49:21;;;;;;;1.50;0.83;;;6.30;65.30;;;;;;5050266;28;46199;-66
2023/04/13 04:51:48;;;;;;;5.27;1.23;;;6.30;65.20;;;;;;5049348;28;46515;-65
2023/04/13 04:54:15;;;;;;;1.20;0.80;;;6.20;65.40;;;;;;5045566;28;45994;-65
2023/04/13 04:56:41;;;;;;;2.17;0.90;;;6.20;65.50;;;;;;5049289;28;47204;-65
2023/04/13 04:59:07;;;;;;;1.53;0.80;;;6.20;65.60;;;;;;5050714;28;46500;-64
2023/04/13 05:01:33;;;;;;;5.67;3.13;;;6.10;65.60;;;;;;5051982;28;46381;-65
2023/04/13 05:04:00;;;;;;;2.80;1.13;;;6.10;65.70;;;;;;5051652;28;46624;-66
2023/04/13 05:06:31;;;;;;;1.87;1.20;;;6.10;65.50;;;;;;5052302;28;46458;-65
2023/04/13 05:08:57;;;;;;;2.07;1.10;;;6.20;65.60;;;;;;5051494;28;46344;-65
2023/04/13 05:11:22;;;;;;;3.50;1.30;;;6.20;65.40;;;;;;5050583;28;46415;-66
2023/04/13 05:13:48;;;;;;;2.03;1.10;;;6.20;65.20;;;;;;5049718;28;45880;-65
2023/04/13 05:16:14;;;;;;;8.40;2.37;;;6.30;65.30;;;;;;5051429;28;46946;-66
2023/04/13 05:18:44;;;;;;;1.40;1.00;;;6.40;65.20;;;;;;5048471;28;46569;-65
2023/04/13 05:21:11;;;;;;;3.20;1.80;;;6.40;65.00;;;;;;5053120;28;46502;-66
2023/04/13 05:23:37;;;;;;;2.73;1.30;;;6.50;64.90;;;;;;5049584;28;46532;-66
2023/04/13 05:26:03;;;;;;;4.00;1.10;;;6.50;64.80;;;;;;5049935;28;46948;-66
2023/04/13 05:28:28;;;;;;;1.40;0.87;;;6.60;64.60;;;;;;5049259;28;46395;-65
2023/04/13 05:31:02;;;;;;;2.03;1.10;;;6.70;64.40;;;;;;5052221;28;46560;-65
2023/04/13 05:33:29;;;;;;;1.97;1.10;;;6.80;64.20;;;;;;5052807;28;45846;-65
2023/04/13 05:35:55;;;;;;;2.30;1.10;;;6.90;64.00;;;;;;5053017;28;47127;-65
2023/04/13 05:38:21;;;;;;;1.73;0.90;;;7.00;63.70;;;;;;5052953;28;46456;-65
2023/04/13 05:40:47;;;;;;;3.57;1.10;;;7.10;63.50;;;;;;5050242;28;46448;-64
2023/04/13 05:43:13;;;;;;;2.37;1.00;;;7.20;63.10;;;;;;5050980;28;46246;-64
2023/04/13 05:45:39;;;;;;;2.00;1.10;;;7.30;63.10;;;;;;5050506;28;46437;-65
2023/04/13 05:48:05;;;;;;;3.03;1.30;;;7.40;63.20;;;;;;5048089;28;46436;-65
2023/04/13 05:50:31;;;;;;;4.47;1.40;;;7.60;63.10;;;;;;5049836;28;46428;-65
2023/04/13 05:52:56;;;;;;;3.93;1.40;;;7.80;62.50;;;;;;5051452;28;46385;-66
2023/04/13 05:55:22;;;;;;;2.03;0.90;;;8.00;62.20;;;;;;5048361;28;46359;-65
2023/04/13 05:57:50;;;;;;;4.00;1.17;;;8.20;61.90;;;;;;5049195;28;46323;-65
2023/04/13 06:00:17;;;;;;;8.40;1.40;;;8.30;61.70;;;;;;5050023;28;46452;-65
2023/04/13 06:02:44;;;;;;;7.57;1.20;;;8.30;61.30;;;;;;5046883;28;46373;-66
2023/04/13 06:05:13;;;;;;;3.83;1.23;;;8.30;61.20;;;;;;5054475;28;45977;-65
2023/04/13 06:07:39;;;;;;;3.80;1.00;;;8.40;61.00;;;;;;5045591;28;46428;-65
2023/04/13 06:10:05;;;;;;;2.57;1.17;;;8.50;60.80;;;;;;5045479;28;46318;-65
2023/04/13 06:12:32;;;;;;;5.80;1.10;;;8.50;60.50;;;;;;5046347;28;46245;-65
2023/04/13 06:14:57;;;;;;;2.77;1.17;;;8.40;60.60;;;;;;5046149;28;47622;-66
2023/04/13 06:17:23;;;;;;;6.90;1.10;;;8.50;60.70;;;;;;5046888;28;46325;-65
2023/04/13 06:19:49;;;;;;;3.20;1.00;;;8.50;60.30;;;;;;5047202;28;46393;-66
2023/04/13 06:22:14;;;;;;;4.33;1.50;;;8.50;60.00;;;;;;5047217;28;46449;-67
2023/04/13 06:24:40;;;;;;;4.60;1.13;;;8.50;59.90;;;;;;5045932;28;47195;-65
2023/04/13 06:27:06;;;;;;;5.30;1.40;;;8.50;60.90;;;;;;5050966;28;46409;-66
2023/04/13 06:29:31;;;;;;;10.63;1.67;;;8.40;59.60;;;;;;5045762;28;46493;-65
2023/04/13 06:31:57;;;;;;;3.77;1.50;;;8.40;59.50;;;;;;5047416;28;46452;-65
2023/04/13 06:34:23;;;;;;;8.13;1.20;;;8.40;59.40;;;;;;5046159;28;46167;-65
2023/04/13 06:36:48;;;;;;;3.30;1.03;;;8.40;59.30;;;;;;5046712;28;46371;-65
2023/04/13 06:39:14;;;;;;;3.93;1.30;;;8.40;59.10;;;;;;5043867;28;46346;-65
2023/04/13 06:41:40;;;;;;;7.27;1.40;;;8.30;58.90;;;;;;5049625;28;46389;-65
2023/04/13 06:44:06;;;;;;;5.80;1.30;;;8.30;58.80;;;;;;5046975;28;46315;-65
2023/04/13 06:46:31;;;;;;;6.83;1.23;;;8.30;58.70;;;;;;5045578;28;46371;-65
2023/04/13 06:48:57;;;;;;;4.67;1.10;;;8.40;58.50;;;;;;5048137;28;46546;-65
2023/04/13 06:51:22;;;;;;;7.17;1.20;;;8.40;58.10;;;;;;5050810;28;46610;-65
2023/04/13 06:53:50;;;;;;;5.40;1.00;;;8.60;57.70;;;;;;4998440;28;1372734;-65
2023/04/13 06:56:15;;;;;;;5.80;0.93;;;8.70;57.00;;;;;;5048250;28;46423;-65
2023/04/13 06:58:41;;;;;;;9.60;1.67;;;8.80;56.50;;;;;;5050832;28;46448;-66
2023/04/13 07:01:07;;;;;;;3.47;1.10;;;8.80;56.40;;;;;;5052508;28;45838;-65
2023/04/13 07:03:32;;;;;;;5.53;1.60;;;8.80;55.90;;;;;;5045352;28;46768;-64
2023/04/13 07:05:58;;;;;;;8.70;1.50;;;9.00;55.60;;;;;;5047721;28;46367;-66
2023/04/13 07:08:23;;;;;;;3.70;1.20;;;9.10;55.20;;;;;;5051848;28;46314;-66
2023/04/13 07:10:53;;;;;;;11.47;1.10;;;9.00;54.30;;;;;;5047716;28;46373;-66
2023/04/13 07:13:19;;;;;;;6.10;1.20;;;9.10;54.30;;;;;;5047875;28;46880;-67
2023/04/13 07:15:45;;;;;;;3.97;1.30;;;9.10;54.10;;;;;;5046591;28;46428;-66
2023/04/13 07:18:10;;;;;;;6.33;1.13;;;9.20;53.70;;;;;;5048848;28;46499;-66
2023/04/13 07:20:38;;;;;;;3.10;1.00;;;9.30;53.30;;;;;;5044107;28;46602;-66
2023/04/13 07:23:04;;;;;;;5.37;1.60;;;9.50;52.60;;;;;;5053958;28;46289;-66
2023/04/13 07:25:30;;;;;;;3.80;1.10;;;9.60;52.40;;;;;;5049233;28;46381;-66
2023/04/13 07:27:56;;;;;;;4.67;1.40;;;9.30;52.00;;;;;;5049496;28;46223;-66
2023/04/13 07:30:22;;;;;;;2.43;1.20;;;9.40;52.10;;;;;;5050518;28;46524;-65
2023/04/13 07:32:47;;;;;;;5.10;1.50;;;9.40;52.10;;;;;;5048346;28;46504;-66
2023/04/13 07:35:13;;;;;;;9.70;1.10;;;9.50;52.20;;;;;;5047317;28;46382;-66
2023/04/13 07:37:41;;;;;;;5.57;1.23;;;9.60;52.20;;;;;;5048853;28;46282;-66
2023/04/13 07:40:07;;;;;;;5.10;1.30;;;9.50;50.40;;;;;;5045639;28;46464;-66
2023/04/13 07:42:33;;;;;;;2.97;1.17;;;9.60;50.60;;;;;;5044821;28;46544;-66
2023/04/13 07:44:58;;;;;;;7.00;1.50;;;9.80;50.20;;;;;;5048077;28;46521;-67
2023/04/13 07:47:24;;;;;;;9.73;1.30;;;10.00;48.50;;;;;;5046507;28;46405;-66
2023/04/13 07:49:50;;;;;;;3.77;1.00;;;10.10;48.00;;;;;;5047306;28;46427;-65
2023/04/13 07:52:16;;;;;;;5.67;1.63;;;10.00;45.50;;;;;;5044701;28;47114;-67
2023/04/13 07:54:41;;;;;;;4.10;1.33;;;10.00;46.30;;;;;;5046254;28;46381;-66
2023/04/13 07:57:07;;;;;;;4.10;1.10;;;10.10;45.90;;;;;;5054668;28;46414;-66
2023/04/13 07:59:33;;;;;;;7.60;1.20;;;10.00;44.00;;;;;;5050788;28;46474;-66
2023/04/13 08:01:58;;;;;;;2.83;1.20;;;9.90;44.10;;;;;;5052904;28;46743;-66
2023/04/13 08:04:24;;;;;;;6.10;1.47;;;10.10;43.80;;;;;;5048949;28;46417;-65
2023/04/13 08:06:50;;;;;;;4.17;1.60;;;10.50;43.80;;;;;;5052697;28;45926;-66
2023/04/13 08:09:15;;;;;;;3.70;0.97;;;11.00;43.20;;;;;;5051409;28;46436;-67
2023/04/13 08:11:42;;;;;;;11.80;1.10;;;11.30;42.30;;;;;;5050388;28;47236;-66
2023/04/13 08:14:08;;;;;;;6.10;1.33;;;11.20;39.50;;;;;;5053429;28;46451;-66
2023/04/13 08:16:34;;;;;;;4.20;1.10;;;11.00;40.20;;;;;;5053708;28;46457;-66
2023/04/13 08:19:00;;;;;;;6.70;1.20;;;11.00;39.40;;;;;;5055142;28;46530;-66
2023/04/13 08:21:27;;;;;;;7.60;1.17;;;10.80;39.20;;;;;;5053222;28;45963;-66
2023/04/13 08:23:53;;;;;;;3.40;1.30;;;10.90;40.00;;;;;;5048515;28;46453;-66
2023/04/13 08:26:20;;;;;;;5.17;1.50;;;11.00;39.70;;;;;;5049263;28;46491;-66
2023/04/13 08:28:49;;;;;;;3.30;1.20;;;11.10;39.80;;;;;;5050154;28;46652;-66
2023/04/13 08:31:15;;;;;;;6.83;1.53;;;11.20;39.50;;;;;;5047599;28;47060;-66
2023/04/13 08:33:42;;;;;;;4.33;1.27;;;11.20;39.20;;;;;;5049162;28;46466;-66
2023/04/13 08:36:08;;;;;;;3.33;0.90;;;11.40;39.10;;;;;;5051906;28;46369;-66
2023/04/13 08:38:34;;;;;;;6.10;1.83;;;11.60;38.70;;;;;;5050885;28;46409;-66
2023/04/13 08:41:02;;;;;;;2.53;0.80;;;11.90;38.10;;;;;;5050799;28;46392;-65
2023/04/13 08:43:27;;;;;;;6.70;1.27;;;12.00;37.80;;;;;;5051582;28;46429;-66
2023/04/13 08:45:53;;;;;;;3.13;1.00;;;12.10;37.40;;;;;;5049363;28;46445;-66
2023/04/13 08:48:21;;;;;;;4.80;1.20;;;12.10;37.00;;;;;;5053932;28;45975;-66
2023/04/13 08:50:52;;;;;;;8.90;1.53;;;12.30;37.10;;;;;;5046913;28;46794;-66
2023/04/13 08:53:18;;;;;;;3.27;1.00;;;12.10;36.20;;;;;;5053774;28;46404;-66
2023/04/13 08:55:44;;;;;;;5.93;1.30;;;12.00;36.60;;;;;;5048781;28;46467;-66
2023/04/13 08:58:12;;;;;;;4.83;1.30;;;12.00;36.70;;;;;;5051875;28;45854;-66
2023/04/13 09:00:40;;;;;;;4.27;1.33;;;12.00;36.50;;;;;;5050428;28;48152;-66
2023/04/13 09:03:07;;;;;;;7.27;1.20;;;12.20;36.10;;;;;;5053619;28;46449;-67
2023/04/13 09:05:40;;;;;;;4.53;1.30;;;12.40;35.70;;;;;;5045677;28;45810;-66
2023/04/13 09:08:08;;;;;;;4.30;1.00;;;12.50;35.30;;;;;;5049806;28;46445;-66
2023/04/13 09:10:34;;;;;;;3.93;1.10;;;12.60;35.70;;;;;;5048767;28;46685;-65
2023/04/13 09:13:00;;;;;;;4.20;1.07;;;12.60;30.90;;;;;;5054052;28;46322;-65
2023/04/13 09:15:26;;;;;;;8.20;1.07;;;12.20;30.90;;;;;;5048373;28;46371;-65
2023/04/13 09:17:52;;;;;;;5.67;1.27;;;12.30;31.90;;;;;;5052078;28;46516;-65
2023/04/13 09:20:22;;;;;;;5.13;1.60;;;12.60;31.30;;;;;;5048278;28;46653;-65
2023/04/13 09:22:51;;;;;;;6.40;1.57;;;12.80;30.90;;;;;;5050077;28;46477;-65
2023/04/13 09:25:21;;;;;;;9.17;1.57;;;13.20;30.60;;;;;;5048609;28;45786;-65
2023/04/13 09:27:47;;;;;;;3.40;1.10;;;13.40;29.90;;;;;;5051327;28;46504;-66
2023/04/13 09:30:14;;;;;;;5.07;1.23;;;13.30;29.20;;;;;;5047143;28;46358;-65
2023/04/13 09:32:39;;;;;;;3.80;1.50;;;13.30;29.40;;;;;;5050133;28;46350;-65
2023/04/13 09:35:07;;;;;;;4.13;1.17;;;13.60;29.30;;;;;;5052185;28;46397;-65
2023/04/13 09:37:43;;;;;;;4.53;1.20;;;13.70;29.10;;;;;;5047613;28;46325;-66
2023/04/13 09:40:12;;;;;;;8.23;1.20;;;13.70;28.20;;;;;;5051451;28;47001;-65
2023/04/13 09:42:40;;;;;;;8.37;1.87;;;13.30;28.40;;;;;;5049046;28;46543;-65
2023/04/13 09:45:07;;;;;;;8.33;1.77;;;13.70;28.70;;;;;;5047672;28;45833;-66
2023/04/13 09:47:39;;;;;;;3.17;1.20;;;13.70;28.70;;;;;;5049944;28;45864;-66
2023/04/13 09:50:23;;;;;;;4.63;1.20;;;13.70;28.70;;;;;;5047421;28;46411;-66
2023/04/13 09:53:05;;;;;;;5.57;1.53;;;13.20;25.90;;;;;;5050075;28;46584;-66
2023/04/13 09:55:37;;;;;;;8.87;1.80;;;12.20;26.50;;;;;;5048076;28;46451;-66
2023/04/13 09:58:10;;;;;;;10.03;1.93;;;11.40;27.10;;;;;;5048058;28;46112;-66
2023/04/13 10:00:41;;;;;;;8.90;1.90;;;11.40;27.70;;;;;;5048738;28;46376;-66
2023/04/13 10:03:11;;;;;;;5.37;2.00;;;11.80;28.10;;;;;;5048154;28;46379;-65
2023/04/13 10:05:37;;;;;;;3.73;1.40;;;12.10;28.50;;;;;;5049112;28;46350;-66
2023/04/13 10:08:05;;;;;;;8.43;1.50;;;12.50;27.90;;;;;;5051245;28;46453;-65
2023/04/13 10:10:32;;;;;;;5.63;1.47;;;12.60;27.90;;;;;;5049840;28;47113;-66
2023/04/13 10:13:02;;;;;;;5.37;1.70;;;12.90;27.70;;;;;;5045799;28;46526;-65
2023/04/13 10:15:52;;;;;;;4.40;1.47;;;13.20;27.10;;;;;;5051261;28;46465;-66
2023/04/13 10:18:50;;;;;;;8.57;1.30;;;13.50;26.70;;;;;;5047642;28;46490;-65
2023/04/13 10:21:17;;;;;;;3.00;1.23;;;13.60;26.00;;;;;;5051126;28;46314;-65
2023/04/13 10:23:43;;;;;;;3.47;1.30;;;13.50;25.50;;;;;;5052029;28;46385;-66
2023/04/13 10:26:09;;;;;;;5.47;1.40;;;13.40;25.50;;;;;;5055289;28;46392;-66
2023/04/13 10:28:42;;;;;;;4.47;1.33;;;13.50;26.10;;;;;;5047119;28;46570;-66
2023/04/13 10:31:09;;;;;;;5.00;1.60;;;13.80;26.00;;;;;;5050048;28;46505;-65
2023/04/13 10:33:46;;;;;;;5.60;1.37;;;14.10;25.70;;;;;;5048260;28;46541;-66
2023/04/13 10:36:11;;;;;;;5.07;1.60;;;14.20;25.30;;;;;;5052479;28;46383;-66
2023/04/13 10:38:45;;;;;;;7.47;1.30;;;14.20;25.50;;;;;;5048199;28;46518;-66
2023/04/13 10:41:31;;;;;;;5.90;2.00;;;14.00;25.40;;;;;;5050674;28;47101;-66
2023/04/13 10:44:04;;;;;;;3.70;1.40;;;13.70;25.60;;;;;;5049001;28;45885;-64
2023/04/13 10:46:33;;;;;;;5.77;1.50;;;13.50;25.70;;;;;;5048154;28;46901;-66
2023/04/13 10:48:59;;;;;;;5.07;1.23;;;13.40;25.80;;;;;;5050614;28;46332;-66
2023/04/13 10:51:36;;;;;;;5.10;1.43;;;13.00;25.30;;;;;;5045645;28;46548;-63
2023/04/13 10:54:03;;;;;;;4.30;1.30;;;12.80;25.70;;;;;;5050026;28;46397;-65
2023/04/13 10:56:28;;;;;;;3.77;1.00;;;12.50;25.10;;;;;;5047207;28;46256;-65
2023/04/13 10:58:54;;;;;;;7.13;1.40;;;12.60;25.40;;;;;;5046192;28;46553;-65
2023/04/13 11:01:20;;;;;;;4.57;0.97;;;12.20;23.80;;;;;;5050497;28;46707;-64
2023/04/13 11:03:49;;;;;;;4.07;1.00;;;11.80;24.80;;;;;;5047349;28;46485;-64
2023/04/13 11:06:15;;;;;;;4.87;1.23;;;11.50;25.30;;;;;;5044661;28;46358;-64
2023/04/13 11:08:42;;;;;;;3.87;1.10;;;11.30;26.20;;;;;;5049854;28;46224;-65
2023/04/13 11:11:10;;;;;;;6.93;1.13;;;11.20;26.10;;;;;;5047341;28;46598;-64
2023/04/13 11:13:44;;;;;;;3.90;1.10;;;11.10;26.90;;;;;;5047033;28;46437;-65
2023/04/13 11:16:09;;;;;;;3.30;1.00;;;11.10;26.90;;;;;;5048006;28;46277;-65
2023/04/13 11:18:35;;;;;;;6.50;1.47;;;11.10;26.60;;;;;;5049838;28;46480;-64
2023/04/13 11:21:04;;;;;;;5.00;1.63;;;11.10;26.90;;;;;;5047571;28;46421;-64
2023/04/13 11:23:33;;;;;;;5.83;1.23;;;10.80;27.30;;;;;;5048100;28;45914;-65
2023/04/13 11:26:00;;;;;;;4.87;1.30;;;10.40;28.20;;;;;;5047926;28;46259;-65
2023/04/13 11:28:42;;;;;;;3.83;1.50;;;10.20;29.20;;;;;;5043926;28;46433;-64
2023/04/13 11:31:08;;;;;;;5.37;1.33;;;10.30;29.00;;;;;;5050701;28;46573;-66
2023/04/13 11:33:34;;;;;;;5.27;1.17;;;10.40;29.40;;;;;;5052035;28;46422;-63
2023/04/13 11:36:01;;;;;;;7.93;1.43;;;10.30;28.70;;;;;;5050539;28;46124;-65
2023/04/13 11:38:27;;;;;;;5.00;1.20;;;10.50;28.60;;;;;;5054282;28;46466;-65
2023/04/13 11:41:03;;;;;;;8.47;1.43;;;10.60;28.60;;;;;;5050227;28;46473;-66
2023/04/13 11:43:29;;;;;;;4.43;1.30;;;10.50;27.90;;;;;;5058064;28;45863;-66
2023/04/13 11:45:55;;;;;;;3.53;1.10;;;10.50;28.00;;;;;;5051596;28;46386;-66
2023/04/13 11:48:21;;;;;;;7.00;1.50;;;10.60;27.90;;;;;;5050831;28;46656;-65
2023/04/13 11:50:48;;;;;;;3.23;1.13;;;10.70;27.70;;;;;;5048287;28;46426;-65
2023/04/13 11:53:14;;;;;;;3.80;1.10;;;10.80;27.40;;;;;;5049177;28;46354;-65
2023/04/13 11:55:40;;;;;;;3.40;1.17;;;11.10;27.50;;;;;;5052750;28;46307;-65
2023/04/13 11:58:17;;;;;;;5.07;1.20;;;11.20;27.90;;;;;;5048655;28;46617;-65
2023/04/13 12:00:43;;;;;;;7.60;1.40;;;11.20;26.90;;;;;;5051286;28;46483;-65
2023/04/13 12:03:13;;;;;;;3.80;1.20;;;11.30;27.00;;;;;;5047543;28;45897;-65
2023/04/13 12:05:40;;;;;;;7.20;1.17;;;11.40;27.10;;;;;;5051494;28;46458;-65
2023/04/13 12:08:06;;;;;;;3.70;1.30;;;11.50;27.20;;;;;;5051200;28;45865;-65
2023/04/13 12:10:35;;;;;;;8.17;1.10;;;11.30;26.10;;;;;;5052779;28;46499;-65
2023/04/13 12:13:07;;;;;;;8.67;1.27;;;11.10;26.20;;;;;;5050880;28;45777;-65
2023/04/13 12:15:35;;;;;;;7.33;1.63;;;11.00;26.80;;;;;;5049113;28;46480;-65
2023/04/13 12:18:02;;;;;;;4.80;1.27;;;10.90;26.70;;;;;;5052560;28;46601;-65
2023/04/13 12:20:35;;;;;;;6.93;1.50;;;10.80;26.70;;;;;;5056707;28;46474;-65
2023/04/13 12:23:01;;;;;;;9.40;1.60;;;10.80;26.70;;;;;;5052568;28;46421;-65
2023/04/13 12:25:30;;;;;;;4.10;1.20;;;10.60;26.50;;;;;;5054992;28;45760;-65
2023/04/13 12:27:56;;;;;;;4.33;1.40;;;10.70;26.60;;;;;;5051796;28;46501;-66
2023/04/13 12:30:22;;;;;;;4.60;1.53;;;10.70;26.60;;;;;;5052873;28;46008;-65
2023/04/13 12:32:51;;;;;;;4.30;1.47;;;10.50;26.50;;;;;;5054540;28;46426;-65
2023/04/13 12:35:20;;;;;;;7.83;1.40;;;10.80;26.70;;;;;;5050814;28;46428;-66
2023/04/13 12:37:47;;;;;;;5.70;1.50;;;11.00;26.80;;;;;;5050331;28;46357;-65
2023/04/13 12:40:14;;;;;;;8.23;1.60;;;10.90;26.70;;;;;;5053265;28;47238;-66
2023/04/13 12:42:49;;;;;;;9.27;1.13;;;10.80;26.70;;;;;;5048430;28;46451;-65
2023/04/13 12:45:15;;;;;;;7.20;1.47;;;10.80;26.70;;;;;;5056401;28;45813;-66
2023/04/13 12:47:41;;;;;;;7.23;1.20;;;11.00;26.80;;;;;;5049581;28;46515;-65
2023/04/13 12:50:09;;;;;;;7.50;1.20;;;11.30;27.00;;;;;;5049174;28;46329;-65
2023/04/13 12:52:37;;;;;;;6.03;1.40;;;11.30;27.00;;;;;;5049270;28;46437;-65
2023/04/13 12:55:03;;;;;;;6.80;1.67;;;11.50;27.20;;;;;;5050477;28;46457;-65